sensor_id;sensor_type;location;lat;lon;timestamp;P1;durP1;ratioP1;P2;durP2;ratioP2
10226;SDS011;15634;48.766;2.272;2023-03-03T00:01:27;44.30;;;24.77;;
10226;SDS011;15634;48.766;2.272;2023-03-03T00:03:54;45.58;;;24.45;;
10226;SDS011;15634;48.766;2.272;2023-03-03T00:06:21;52.65;;;24.25;;
10226;SDS011;15634;48.766;2.272;2023-03-03T00:08:49;48.22;;;25.25;;
10226;SDS011;15634;48.766;2.272;2023-03-03T00:11:15;44.40;;;24.38;;
10226;SDS011;15634;48.766;2.272;2023-03-03T00:13:44;48.10;;;25.08;;
10226;SDS011;15634;48.766;2.272;2023-03-03T00:16:12;48.00;;;23.00;;
10226;SDS011;15634;48.766;2.272;2023-03-03T00:18:43;47.50;;;24.52;;
10226;SDS011;15634;48.766;2.272;2023-03-03T00:21:17;44.15;;;23.08;;
10226;SDS011;15634;48.766;2.272;2023-03-03T00:23:49;42.33;;;22.98;;
10226;SDS011;15634;48.766;2.272;2023-03-03T00:26:17;46.95;;;24.13;;
10226;SDS011;15634;48.766;2.272;2023-03-03T00:28:47;43.50;;;24.15;;
10226;SDS011;15634;48.766;2.272;2023-03-03T00:31:15;48.92;;;24.83;;
10226;SDS011;15634;48.766;2.272;2023-03-03T00:33:46;51.03;;;24.80;;
10226;SDS011;15634;48.766;2.272;2023-03-03T00:36:24;50.20;;;24.45;;
10226;SDS011;15634;48.766;2.272;2023-03-03T00:38:57;48.65;;;23.92;;
10226;SDS011;15634;48.766;2.272;2023-03-03T00:41:35;46.90;;;24.52;;
10226;SDS011;15634;48.766;2.272;2023-03-03T00:44:03;45.47;;;24.13;;
10226;SDS011;15634;48.766;2.272;2023-03-03T00:47:23;46.08;;;24.02;;
10226;SDS011;15634;48.766;2.272;2023-03-03T00:49:53;43.90;;;23.35;;
10226;SDS011;15634;48.766;2.272;2023-03-03T00:52:20;50.05;;;25.30;;
10226;SDS011;15634;48.766;2.272;2023-03-03T00:54:48;48.53;;;24.92;;
10226;SDS011;15634;48.766;2.272;2023-03-03T00:57:15;46.03;;;23.77;;
10226;SDS011;15634;48.766;2.272;2023-03-03T00:59:42;45.58;;;23.80;;
10226;SDS011;15634;48.766;2.272;2023-03-03T01:02:08;47.17;;;25.83;;
10226;SDS011;15634;48.766;2.272;2023-03-03T01:04:35;50.45;;;24.73;;
10226;SDS011;15634;48.766;2.272;2023-03-03T01:07:03;49.72;;;26.13;;
10226;SDS011;15634;48.766;2.272;2023-03-03T01:09:29;43.55;;;23.20;;
10226;SDS011;15634;48.766;2.272;2023-03-03T01:11:56;50.92;;;24.35;;
10226;SDS011;15634;48.766;2.272;2023-03-03T01:14:23;46.97;;;23.20;;
10226;SDS011;15634;48.766;2.272;2023-03-03T01:16:49;43.33;;;24.48;;
10226;SDS011;15634;48.766;2.272;2023-03-03T01:19:16;49.88;;;25.52;;
10226;SDS011;15634;48.766;2.272;2023-03-03T01:21:43;46.45;;;24.52;;
10226;SDS011;15634;48.766;2.272;2023-03-03T01:24:11;51.90;;;24.55;;
10226;SDS011;15634;48.766;2.272;2023-03-03T01:26:37;48.25;;;23.67;;
10226;SDS011;15634;48.766;2.272;2023-03-03T01:29:04;50.80;;;25.20;;
10226;SDS011;15634;48.766;2.272;2023-03-03T01:31:31;49.80;;;25.17;;
10226;SDS011;15634;48.766;2.272;2023-03-03T01:33:58;47.67;;;23.83;;
10226;SDS011;15634;48.766;2.272;2023-03-03T01:36:24;47.47;;;24.65;;
10226;SDS011;15634;48.766;2.272;2023-03-03T01:38:52;49.55;;;24.27;;
10226;SDS011;15634;48.766;2.272;2023-03-03T01:41:20;47.45;;;24.08;;
10226;SDS011;15634;48.766;2.272;2023-03-03T01:43:47;51.55;;;25.48;;
10226;SDS011;15634;48.766;2.272;2023-03-03T01:46:20;44.75;;;23.88;;
10226;SDS011;15634;48.766;2.272;2023-03-03T01:48:55;46.95;;;24.08;;
10226;SDS011;15634;48.766;2.272;2023-03-03T01:51:27;49.42;;;24.60;;
10226;SDS011;15634;48.766;2.272;2023-03-03T01:53:55;46.13;;;23.48;;
10226;SDS011;15634;48.766;2.272;2023-03-03T01:56:24;51.28;;;24.35;;
10226;SDS011;15634;48.766;2.272;2023-03-03T01:58:52;46.63;;;24.17;;
10226;SDS011;15634;48.766;2.272;2023-03-03T02:01:22;47.65;;;24.42;;
10226;SDS011;15634;48.766;2.272;2023-03-03T02:03:50;44.67;;;24.25;;
10226;SDS011;15634;48.766;2.272;2023-03-03T02:06:19;50.78;;;24.80;;
10226;SDS011;15634;48.766;2.272;2023-03-03T02:08:50;46.72;;;23.83;;
10226;SDS011;15634;48.766;2.272;2023-03-03T02:11:20;48.42;;;24.48;;
10226;SDS011;15634;48.766;2.272;2023-03-03T02:13:48;48.17;;;24.70;;
10226;SDS011;15634;48.766;2.272;2023-03-03T02:16:15;46.10;;;23.88;;
10226;SDS011;15634;48.766;2.272;2023-03-03T02:18:41;48.30;;;24.23;;
10226;SDS011;15634;48.766;2.272;2023-03-03T02:21:09;47.80;;;24.85;;
10226;SDS011;15634;48.766;2.272;2023-03-03T02:23:37;49.00;;;24.95;;
10226;SDS011;15634;48.766;2.272;2023-03-03T02:26:09;44.97;;;23.52;;
10226;SDS011;15634;48.766;2.272;2023-03-03T02:28:37;46.22;;;23.55;;
10226;SDS011;15634;48.766;2.272;2023-03-03T02:31:05;48.28;;;23.75;;
10226;SDS011;15634;48.766;2.272;2023-03-03T02:33:32;51.15;;;24.83;;
10226;SDS011;15634;48.766;2.272;2023-03-03T02:35:59;47.63;;;24.73;;
10226;SDS011;15634;48.766;2.272;2023-03-03T02:38:26;52.13;;;25.55;;
10226;SDS011;15634;48.766;2.272;2023-03-03T02:40:59;47.13;;;24.88;;
10226;SDS011;15634;48.766;2.272;2023-03-03T02:43:32;48.63;;;25.65;;
10226;SDS011;15634;48.766;2.272;2023-03-03T02:46:02;51.20;;;25.10;;
10226;SDS011;15634;48.766;2.272;2023-03-03T02:48:29;55.63;;;27.00;;
10226;SDS011;15634;48.766;2.272;2023-03-03T02:50:56;55.35;;;26.08;;
10226;SDS011;15634;48.766;2.272;2023-03-03T02:53:22;52.10;;;24.58;;
10226;SDS011;15634;48.766;2.272;2023-03-03T02:55:49;49.22;;;26.17;;
10226;SDS011;15634;48.766;2.272;2023-03-03T02:58:15;57.95;;;25.38;;
10226;SDS011;15634;48.766;2.272;2023-03-03T03:00:43;49.25;;;25.55;;
10226;SDS011;15634;48.766;2.272;2023-03-03T03:03:11;52.45;;;25.95;;
10226;SDS011;15634;48.766;2.272;2023-03-03T03:05:38;50.97;;;26.80;;
10226;SDS011;15634;48.766;2.272;2023-03-03T03:08:04;50.15;;;25.38;;
10226;SDS011;15634;48.766;2.272;2023-03-03T03:10:31;54.92;;;27.15;;
10226;SDS011;15634;48.766;2.272;2023-03-03T03:12:58;52.10;;;25.90;;
10226;SDS011;15634;48.766;2.272;2023-03-03T03:15:25;49.13;;;24.58;;
10226;SDS011;15634;48.766;2.272;2023-03-03T03:17:52;49.08;;;25.20;;
10226;SDS011;15634;48.766;2.272;2023-03-03T03:20:19;56.22;;;26.90;;
10226;SDS011;15634;48.766;2.272;2023-03-03T03:22:46;52.45;;;27.17;;
10226;SDS011;15634;48.766;2.272;2023-03-03T03:25:13;49.10;;;25.15;;
10226;SDS011;15634;48.766;2.272;2023-03-03T03:27:39;53.63;;;26.65;;
10226;SDS011;15634;48.766;2.272;2023-03-03T03:30:06;53.75;;;26.58;;
10226;SDS011;15634;48.766;2.272;2023-03-03T03:32:34;49.63;;;25.83;;
10226;SDS011;15634;48.766;2.272;2023-03-03T03:35:02;53.75;;;26.50;;
10226;SDS011;15634;48.766;2.272;2023-03-03T03:37:29;54.78;;;26.60;;
10226;SDS011;15634;48.766;2.272;2023-03-03T03:39:56;53.90;;;25.75;;
10226;SDS011;15634;48.766;2.272;2023-03-03T03:42:22;54.75;;;27.15;;
10226;SDS011;15634;48.766;2.272;2023-03-03T03:44:49;53.65;;;27.08;;
10226;SDS011;15634;48.766;2.272;2023-03-03T03:47:16;57.05;;;27.20;;
10226;SDS011;15634;48.766;2.272;2023-03-03T03:49:42;52.00;;;27.60;;
10226;SDS011;15634;48.766;2.272;2023-03-03T03:52:10;57.17;;;28.45;;
10226;SDS011;15634;48.766;2.272;2023-03-03T03:54:37;57.45;;;25.88;;
10226;SDS011;15634;48.766;2.272;2023-03-03T03:57:04;60.13;;;28.13;;
10226;SDS011;15634;48.766;2.272;2023-03-03T03:59:30;54.92;;;26.17;;
10226;SDS011;15634;48.766;2.272;2023-03-03T04:01:57;56.47;;;26.52;;
10226;SDS011;15634;48.766;2.272;2023-03-03T04:04:24;55.70;;;27.27;;
10226;SDS011;15634;48.766;2.272;2023-03-03T04:06:50;55.72;;;26.88;;
10226;SDS011;15634;48.766;2.272;2023-03-03T04:09:18;57.72;;;26.88;;
10226;SDS011;15634;48.766;2.272;2023-03-03T04:11:45;52.20;;;26.50;;
10226;SDS011;15634;48.766;2.272;2023-03-03T04:14:12;57.25;;;28.77;;
10226;SDS011;15634;48.766;2.272;2023-03-03T04:16:39;52.20;;;27.27;;
10226;SDS011;15634;48.766;2.272;2023-03-03T04:19:05;58.10;;;26.25;;
10226;SDS011;15634;48.766;2.272;2023-03-03T04:21:32;57.88;;;28.05;;
10226;SDS011;15634;48.766;2.272;2023-03-03T04:23:59;55.88;;;28.88;;
10226;SDS011;15634;48.766;2.272;2023-03-03T04:26:27;51.80;;;27.20;;
10226;SDS011;15634;48.766;2.272;2023-03-03T04:28:55;57.25;;;27.50;;
10226;SDS011;15634;48.766;2.272;2023-03-03T04:31:21;54.30;;;27.88;;
10226;SDS011;15634;48.766;2.272;2023-03-03T04:33:49;55.00;;;27.35;;
10226;SDS011;15634;48.766;2.272;2023-03-03T04:36:16;61.17;;;28.38;;
10226;SDS011;15634;48.766;2.272;2023-03-03T04:38:43;60.35;;;29.40;;
10226;SDS011;15634;48.766;2.272;2023-03-03T04:41:10;57.88;;;28.05;;
10226;SDS011;15634;48.766;2.272;2023-03-03T04:43:38;59.15;;;28.05;;
10226;SDS011;15634;48.766;2.272;2023-03-03T04:46:04;53.83;;;27.13;;
10226;SDS011;15634;48.766;2.272;2023-03-03T04:48:31;55.13;;;27.08;;
10226;SDS011;15634;48.766;2.272;2023-03-03T04:50:58;56.63;;;27.42;;
10226;SDS011;15634;48.766;2.272;2023-03-03T04:53:24;59.95;;;28.65;;
10226;SDS011;15634;48.766;2.272;2023-03-03T04:55:51;57.45;;;28.65;;
10226;SDS011;15634;48.766;2.272;2023-03-03T04:58:18;53.80;;;27.55;;
10226;SDS011;15634;48.766;2.272;2023-03-03T05:00:47;57.72;;;28.98;;
10226;SDS011;15634;48.766;2.272;2023-03-03T05:03:19;55.45;;;26.80;;
10226;SDS011;15634;48.766;2.272;2023-03-03T05:05:46;61.97;;;28.58;;
10226;SDS011;15634;48.766;2.272;2023-03-03T05:08:13;61.28;;;28.42;;
10226;SDS011;15634;48.766;2.272;2023-03-03T05:10:39;62.03;;;29.70;;
10226;SDS011;15634;48.766;2.272;2023-03-03T05:13:06;55.15;;;28.17;;
10226;SDS011;15634;48.766;2.272;2023-03-03T05:15:33;56.40;;;27.83;;
10226;SDS011;15634;48.766;2.272;2023-03-03T05:18:02;59.28;;;29.80;;
10226;SDS011;15634;48.766;2.272;2023-03-03T05:20:29;56.60;;;27.60;;
10226;SDS011;15634;48.766;2.272;2023-03-03T05:22:55;61.20;;;29.50;;
10226;SDS011;15634;48.766;2.272;2023-03-03T05:25:23;65.10;;;29.75;;
10226;SDS011;15634;48.766;2.272;2023-03-03T05:27:50;59.22;;;29.75;;
10226;SDS011;15634;48.766;2.272;2023-03-03T05:30:19;59.97;;;28.52;;
10226;SDS011;15634;48.766;2.272;2023-03-03T05:32:45;57.55;;;28.17;;
10226;SDS011;15634;48.766;2.272;2023-03-03T05:35:14;59.30;;;30.60;;
10226;SDS011;15634;48.766;2.272;2023-03-03T05:37:40;58.45;;;29.58;;
10226;SDS011;15634;48.766;2.272;2023-03-03T05:40:11;70.63;;;31.15;;
10226;SDS011;15634;48.766;2.272;2023-03-03T05:42:39;58.20;;;28.27;;
10226;SDS011;15634;48.766;2.272;2023-03-03T05:45:06;59.70;;;29.10;;
10226;SDS011;15634;48.766;2.272;2023-03-03T05:47:33;61.90;;;29.58;;
10226;SDS011;15634;48.766;2.272;2023-03-03T05:50:00;61.67;;;30.00;;
10226;SDS011;15634;48.766;2.272;2023-03-03T05:52:28;60.67;;;29.77;;
10226;SDS011;15634;48.766;2.272;2023-03-03T05:54:54;62.63;;;29.40;;
10226;SDS011;15634;48.766;2.272;2023-03-03T05:57:21;54.88;;;28.85;;
10226;SDS011;15634;48.766;2.272;2023-03-03T05:59:48;58.42;;;29.88;;
10226;SDS011;15634;48.766;2.272;2023-03-03T06:02:15;66.15;;;31.17;;
10226;SDS011;15634;48.766;2.272;2023-03-03T06:04:42;65.00;;;30.52;;
10226;SDS011;15634;48.766;2.272;2023-03-03T06:07:08;61.85;;;30.83;;
10226;SDS011;15634;48.766;2.272;2023-03-03T06:09:37;54.25;;;28.70;;
10226;SDS011;15634;48.766;2.272;2023-03-03T06:12:04;62.88;;;30.45;;
10226;SDS011;15634;48.766;2.272;2023-03-03T06:14:31;59.97;;;29.63;;
10226;SDS011;15634;48.766;2.272;2023-03-03T06:16:57;60.85;;;31.10;;
10226;SDS011;15634;48.766;2.272;2023-03-03T06:19:24;57.10;;;29.05;;
10226;SDS011;15634;48.766;2.272;2023-03-03T06:21:51;65.97;;;31.10;;
10226;SDS011;15634;48.766;2.272;2023-03-03T06:24:18;61.88;;;30.65;;
10226;SDS011;15634;48.766;2.272;2023-03-03T06:26:46;62.72;;;29.42;;
10226;SDS011;15634;48.766;2.272;2023-03-03T06:29:13;65.40;;;30.48;;
10226;SDS011;15634;48.766;2.272;2023-03-03T06:31:39;61.20;;;29.02;;
10226;SDS011;15634;48.766;2.272;2023-03-03T06:34:07;59.95;;;29.33;;
10226;SDS011;15634;48.766;2.272;2023-03-03T06:36:33;63.00;;;30.33;;
10226;SDS011;15634;48.766;2.272;2023-03-03T06:39:00;66.20;;;30.33;;
10226;SDS011;15634;48.766;2.272;2023-03-03T06:41:27;67.93;;;32.05;;
10226;SDS011;15634;48.766;2.272;2023-03-03T06:43:56;57.33;;;29.50;;
10226;SDS011;15634;48.766;2.272;2023-03-03T06:46:24;61.63;;;29.77;;
10226;SDS011;15634;48.766;2.272;2023-03-03T06:48:51;60.90;;;30.33;;
10226;SDS011;15634;48.766;2.272;2023-03-03T06:51:22;58.13;;;30.10;;
10226;SDS011;15634;48.766;2.272;2023-03-03T06:53:51;65.25;;;29.90;;
10226;SDS011;15634;48.766;2.272;2023-03-03T06:56:19;65.68;;;33.03;;
10226;SDS011;15634;48.766;2.272;2023-03-03T06:58:46;67.03;;;32.33;;
10226;SDS011;15634;48.766;2.272;2023-03-03T07:01:15;57.10;;;30.65;;
10226;SDS011;15634;48.766;2.272;2023-03-03T07:03:42;62.80;;;31.33;;
10226;SDS011;15634;48.766;2.272;2023-03-03T07:06:14;62.97;;;30.20;;
10226;SDS011;15634;48.766;2.272;2023-03-03T07:08:46;61.42;;;31.67;;
10226;SDS011;15634;48.766;2.272;2023-03-03T07:11:15;65.00;;;31.50;;
10226;SDS011;15634;48.766;2.272;2023-03-03T07:13:44;66.38;;;31.75;;
10226;SDS011;15634;48.766;2.272;2023-03-03T07:16:12;61.03;;;31.30;;
10226;SDS011;15634;48.766;2.272;2023-03-03T07:18:43;60.90;;;31.77;;
10226;SDS011;15634;48.766;2.272;2023-03-03T07:21:15;70.18;;;31.83;;
10226;SDS011;15634;48.766;2.272;2023-03-03T07:23:44;61.25;;;30.27;;
10226;SDS011;15634;48.766;2.272;2023-03-03T07:26:12;62.60;;;31.90;;
10226;SDS011;15634;48.766;2.272;2023-03-03T07:28:40;68.68;;;32.97;;
10226;SDS011;15634;48.766;2.272;2023-03-03T07:33:58;62.17;;;31.02;;
10226;SDS011;15634;48.766;2.272;2023-03-03T07:36:27;64.63;;;31.98;;
10226;SDS011;15634;48.766;2.272;2023-03-03T07:38:56;62.83;;;32.97;;
10226;SDS011;15634;48.766;2.272;2023-03-03T07:41:24;65.60;;;33.42;;
10226;SDS011;15634;48.766;2.272;2023-03-03T07:43:52;69.57;;;35.83;;
10226;SDS011;15634;48.766;2.272;2023-03-03T07:46:22;69.43;;;33.70;;
10226;SDS011;15634;48.766;2.272;2023-03-03T07:48:51;74.60;;;36.55;;
10226;SDS011;15634;48.766;2.272;2023-03-03T07:51:20;76.47;;;39.05;;
10226;SDS011;15634;48.766;2.272;2023-03-03T07:53:49;78.40;;;37.78;;
10226;SDS011;15634;48.766;2.272;2023-03-03T07:56:19;80.50;;;39.65;;
10226;SDS011;15634;48.766;2.272;2023-03-03T07:58:55;80.15;;;38.00;;
10226;SDS011;15634;48.766;2.272;2023-03-03T08:01:27;79.97;;;42.25;;
10226;SDS011;15634;48.766;2.272;2023-03-03T08:03:58;83.47;;;41.72;;
10226;SDS011;15634;48.766;2.272;2023-03-03T08:06:29;84.50;;;41.15;;
10226;SDS011;15634;48.766;2.272;2023-03-03T08:09:01;81.95;;;41.63;;
10226;SDS011;15634;48.766;2.272;2023-03-03T08:11:46;80.32;;;42.42;;
10226;SDS011;15634;48.766;2.272;2023-03-03T08:14:15;77.75;;;39.55;;
10226;SDS011;15634;48.766;2.272;2023-03-03T08:16:45;70.18;;;36.30;;
10226;SDS011;15634;48.766;2.272;2023-03-03T08:19:12;81.78;;;42.20;;
10226;SDS011;15634;48.766;2.272;2023-03-03T08:21:42;88.30;;;43.03;;
10226;SDS011;15634;48.766;2.272;2023-03-03T08:24:09;85.68;;;42.90;;
10226;SDS011;15634;48.766;2.272;2023-03-03T08:26:36;98.53;;;47.40;;
10226;SDS011;15634;48.766;2.272;2023-03-03T08:29:03;85.55;;;43.38;;
10226;SDS011;15634;48.766;2.272;2023-03-03T08:31:30;88.22;;;44.95;;
10226;SDS011;15634;48.766;2.272;2023-03-03T08:33:56;86.43;;;41.65;;
10226;SDS011;15634;48.766;2.272;2023-03-03T08:36:24;82.65;;;43.03;;
10226;SDS011;15634;48.766;2.272;2023-03-03T08:38:52;85.55;;;42.80;;
10226;SDS011;15634;48.766;2.272;2023-03-03T08:41:18;92.35;;;44.00;;
10226;SDS011;15634;48.766;2.272;2023-03-03T08:43:45;79.53;;;40.78;;
10226;SDS011;15634;48.766;2.272;2023-03-03T08:46:12;91.05;;;43.60;;
10226;SDS011;15634;48.766;2.272;2023-03-03T08:48:39;84.15;;;42.67;;
10226;SDS011;15634;48.766;2.272;2023-03-03T08:51:05;81.85;;;42.03;;
10226;SDS011;15634;48.766;2.272;2023-03-03T08:53:32;86.22;;;41.92;;
10226;SDS011;15634;48.766;2.272;2023-03-03T08:56:02;80.72;;;39.80;;
10226;SDS011;15634;48.766;2.272;2023-03-03T08:58:29;80.70;;;41.30;;
10226;SDS011;15634;48.766;2.272;2023-03-03T09:00:56;80.00;;;41.55;;
10226;SDS011;15634;48.766;2.272;2023-03-03T09:03:23;78.22;;;41.20;;
10226;SDS011;15634;48.766;2.272;2023-03-03T09:05:50;78.20;;;39.03;;
10226;SDS011;15634;48.766;2.272;2023-03-03T09:08:18;75.88;;;40.83;;
10226;SDS011;15634;48.766;2.272;2023-03-03T09:10:44;80.20;;;39.47;;
10226;SDS011;15634;48.766;2.272;2023-03-03T09:13:13;80.03;;;40.92;;
10226;SDS011;15634;48.766;2.272;2023-03-03T09:15:43;82.22;;;42.38;;
10226;SDS011;15634;48.766;2.272;2023-03-03T09:18:13;81.93;;;41.22;;
10226;SDS011;15634;48.766;2.272;2023-03-03T09:20:41;84.05;;;41.67;;
10226;SDS011;15634;48.766;2.272;2023-03-03T09:23:27;85.32;;;42.80;;
10226;SDS011;15634;48.766;2.272;2023-03-03T09:26:05;79.80;;;40.78;;
10226;SDS011;15634;48.766;2.272;2023-03-03T09:28:45;82.07;;;40.47;;
10226;SDS011;15634;48.766;2.272;2023-03-03T09:31:16;73.20;;;38.50;;
10226;SDS011;15634;48.766;2.272;2023-03-03T09:33:48;77.40;;;38.67;;
10226;SDS011;15634;48.766;2.272;2023-03-03T09:36:18;70.75;;;36.42;;
10226;SDS011;15634;48.766;2.272;2023-03-03T09:38:46;73.20;;;36.13;;
10226;SDS011;15634;48.766;2.272;2023-03-03T09:41:35;70.05;;;34.78;;
10226;SDS011;15634;48.766;2.272;2023-03-03T09:47:13;64.70;;;33.58;;
10226;SDS011;15634;48.766;2.272;2023-03-03T09:49:50;66.00;;;35.53;;
10226;SDS011;15634;48.766;2.272;2023-03-03T09:52:25;69.20;;;34.50;;
10226;SDS011;15634;48.766;2.272;2023-03-03T09:55:04;71.15;;;36.17;;
10226;SDS011;15634;48.766;2.272;2023-03-03T09:57:43;65.18;;;36.03;;
10226;SDS011;15634;48.766;2.272;2023-03-03T10:00:28;68.43;;;35.40;;
10226;SDS011;15634;48.766;2.272;2023-03-03T10:03:08;73.43;;;36.67;;
10226;SDS011;15634;48.766;2.272;2023-03-03T10:05:43;67.00;;;36.25;;
10226;SDS011;15634;48.766;2.272;2023-03-03T10:08:21;72.70;;;36.70;;
10226;SDS011;15634;48.766;2.272;2023-03-03T10:11:00;73.40;;;37.22;;
10226;SDS011;15634;48.766;2.272;2023-03-03T10:13:41;64.85;;;35.50;;
10226;SDS011;15634;48.766;2.272;2023-03-03T10:16:21;68.90;;;32.97;;
10226;SDS011;15634;48.766;2.272;2023-03-03T10:18:59;68.28;;;37.13;;
10226;SDS011;15634;48.766;2.272;2023-03-03T10:21:28;69.13;;;37.05;;
10226;SDS011;15634;48.766;2.272;2023-03-03T10:24:01;65.10;;;34.67;;
10226;SDS011;15634;48.766;2.272;2023-03-03T10:29:30;64.57;;;32.67;;
10226;SDS011;15634;48.766;2.272;2023-03-03T10:32:22;64.17;;;32.00;;
10226;SDS011;15634;48.766;2.272;2023-03-03T10:35:02;63.35;;;31.33;;
10226;SDS011;15634;48.766;2.272;2023-03-03T10:37:40;56.75;;;29.88;;
10226;SDS011;15634;48.766;2.272;2023-03-03T10:40:15;57.60;;;31.15;;
10226;SDS011;15634;48.766;2.272;2023-03-03T10:42:46;61.42;;;31.73;;
10226;SDS011;15634;48.766;2.272;2023-03-03T10:45:26;63.03;;;31.92;;
10226;SDS011;15634;48.766;2.272;2023-03-03T10:48:40;60.67;;;31.60;;
10226;SDS011;15634;48.766;2.272;2023-03-03T10:51:15;53.22;;;27.98;;
10226;SDS011;15634;48.766;2.272;2023-03-03T10:53:50;54.00;;;26.35;;
10226;SDS011;15634;48.766;2.272;2023-03-03T10:56:28;51.15;;;27.05;;
10226;SDS011;15634;48.766;2.272;2023-03-03T10:59:03;52.50;;;26.75;;
10226;SDS011;15634;48.766;2.272;2023-03-03T11:01:46;51.92;;;26.92;;
10226;SDS011;15634;48.766;2.272;2023-03-03T11:04:24;55.15;;;27.10;;
10226;SDS011;15634;48.766;2.272;2023-03-03T11:07:02;56.22;;;28.48;;
10226;SDS011;15634;48.766;2.272;2023-03-03T11:12:32;53.40;;;27.02;;
10226;SDS011;15634;48.766;2.272;2023-03-03T11:15:17;49.30;;;27.08;;
10226;SDS011;15634;48.766;2.272;2023-03-03T11:17:53;51.10;;;26.73;;
10226;SDS011;15634;48.766;2.272;2023-03-03T11:20:40;46.63;;;26.23;;
10226;SDS011;15634;48.766;2.272;2023-03-03T11:23:25;48.45;;;25.83;;
10226;SDS011;15634;48.766;2.272;2023-03-03T11:26:14;52.72;;;28.23;;
10226;SDS011;15634;48.766;2.272;2023-03-03T11:28:53;46.60;;;24.90;;
10226;SDS011;15634;48.766;2.272;2023-03-03T11:31:29;46.75;;;25.42;;
10226;SDS011;15634;48.766;2.272;2023-03-03T11:34:02;51.53;;;25.58;;
10226;SDS011;15634;48.766;2.272;2023-03-03T11:36:40;46.22;;;26.17;;
10226;SDS011;15634;48.766;2.272;2023-03-03T11:39:12;50.63;;;25.27;;
10226;SDS011;15634;48.766;2.272;2023-03-03T11:41:41;47.85;;;26.25;;
10226;SDS011;15634;48.766;2.272;2023-03-03T11:44:10;50.95;;;25.65;;
10226;SDS011;15634;48.766;2.272;2023-03-03T11:46:43;48.05;;;25.83;;
10226;SDS011;15634;48.766;2.272;2023-03-03T11:49:13;46.72;;;24.48;;
10226;SDS011;15634;48.766;2.272;2023-03-03T11:51:45;45.22;;;24.40;;
10226;SDS011;15634;48.766;2.272;2023-03-03T11:54:17;44.65;;;25.48;;
10226;SDS011;15634;48.766;2.272;2023-03-03T11:56:46;42.53;;;24.10;;
10226;SDS011;15634;48.766;2.272;2023-03-03T11:59:27;39.38;;;23.00;;
10226;SDS011;15634;48.766;2.272;2023-03-03T12:02:20;47.25;;;23.63;;
10226;SDS011;15634;48.766;2.272;2023-03-03T12:04:51;47.17;;;23.65;;
10226;SDS011;15634;48.766;2.272;2023-03-03T12:07:23;47.13;;;22.83;;
10226;SDS011;15634;48.766;2.272;2023-03-03T12:09:59;45.90;;;23.25;;
10226;SDS011;15634;48.766;2.272;2023-03-03T12:12:31;41.33;;;21.90;;
10226;SDS011;15634;48.766;2.272;2023-03-03T12:15:04;44.13;;;23.55;;
10226;SDS011;15634;48.766;2.272;2023-03-03T12:17:38;42.45;;;23.08;;
10226;SDS011;15634;48.766;2.272;2023-03-03T12:20:13;45.50;;;22.50;;
10226;SDS011;15634;48.766;2.272;2023-03-03T12:22:47;42.00;;;22.73;;
10226;SDS011;15634;48.766;2.272;2023-03-03T12:25:24;44.72;;;22.30;;
10226;SDS011;15634;48.766;2.272;2023-03-03T12:27:59;40.45;;;21.95;;
10226;SDS011;15634;48.766;2.272;2023-03-03T12:30:39;41.78;;;21.30;;
10226;SDS011;15634;48.766;2.272;2023-03-03T12:33:19;36.63;;;19.40;;
10226;SDS011;15634;48.766;2.272;2023-03-03T12:35:49;38.03;;;20.60;;
10226;SDS011;15634;48.766;2.272;2023-03-03T12:40:53;37.15;;;21.00;;
10226;SDS011;15634;48.766;2.272;2023-03-03T12:43:29;37.40;;;19.75;;
10226;SDS011;15634;48.766;2.272;2023-03-03T12:46:06;40.15;;;20.75;;
10226;SDS011;15634;48.766;2.272;2023-03-03T12:48:39;43.15;;;20.88;;
10226;SDS011;15634;48.766;2.272;2023-03-03T12:51:09;37.67;;;20.48;;
10226;SDS011;15634;48.766;2.272;2023-03-03T12:56:44;38.20;;;20.00;;
10226;SDS011;15634;48.766;2.272;2023-03-03T12:59:16;33.30;;;18.10;;
10226;SDS011;15634;48.766;2.272;2023-03-03T13:01:55;39.75;;;20.50;;
10226;SDS011;15634;48.766;2.272;2023-03-03T13:04:31;37.28;;;20.50;;
10226;SDS011;15634;48.766;2.272;2023-03-03T13:07:02;36.83;;;18.33;;
10226;SDS011;15634;48.766;2.272;2023-03-03T13:09:34;40.60;;;19.05;;
10226;SDS011;15634;48.766;2.272;2023-03-03T13:12:12;36.47;;;18.35;;
10226;SDS011;15634;48.766;2.272;2023-03-03T13:14:48;33.10;;;18.13;;
10226;SDS011;15634;48.766;2.272;2023-03-03T13:17:18;31.83;;;17.58;;
10226;SDS011;15634;48.766;2.272;2023-03-03T13:19:49;33.67;;;17.20;;
10226;SDS011;15634;48.766;2.272;2023-03-03T13:22:20;36.72;;;17.30;;
10226;SDS011;15634;48.766;2.272;2023-03-03T13:25:04;28.25;;;16.17;;
10226;SDS011;15634;48.766;2.272;2023-03-03T13:27:35;29.58;;;15.60;;
10226;SDS011;15634;48.766;2.272;2023-03-03T13:30:08;28.50;;;15.77;;
10226;SDS011;15634;48.766;2.272;2023-03-03T13:32:42;30.60;;;15.60;;
10226;SDS011;15634;48.766;2.272;2023-03-03T13:35:14;30.52;;;14.55;;
10226;SDS011;15634;48.766;2.272;2023-03-03T13:37:46;28.10;;;14.35;;
10226;SDS011;15634;48.766;2.272;2023-03-03T13:40:17;28.65;;;14.60;;
10226;SDS011;15634;48.766;2.272;2023-03-03T13:42:46;29.10;;;15.02;;
10226;SDS011;15634;48.766;2.272;2023-03-03T13:45:16;28.10;;;15.27;;
10226;SDS011;15634;48.766;2.272;2023-03-03T13:47:45;29.30;;;14.88;;
10226;SDS011;15634;48.766;2.272;2023-03-03T13:50:17;28.33;;;14.93;;
10226;SDS011;15634;48.766;2.272;2023-03-03T13:52:50;31.33;;;15.48;;
10226;SDS011;15634;48.766;2.272;2023-03-03T13:55:26;30.75;;;14.38;;
10226;SDS011;15634;48.766;2.272;2023-03-03T13:57:59;27.58;;;14.25;;
10226;SDS011;15634;48.766;2.272;2023-03-03T14:00:31;28.58;;;14.45;;
10226;SDS011;15634;48.766;2.272;2023-03-03T14:03:14;27.13;;;13.63;;
10226;SDS011;15634;48.766;2.272;2023-03-03T14:05:55;28.42;;;12.90;;
10226;SDS011;15634;48.766;2.272;2023-03-03T14:08:25;27.02;;;14.38;;
10226;SDS011;15634;48.766;2.272;2023-03-03T14:11:09;29.45;;;14.82;;
10226;SDS011;15634;48.766;2.272;2023-03-03T14:13:38;24.23;;;13.60;;
10226;SDS011;15634;48.766;2.272;2023-03-03T14:16:10;25.13;;;13.93;;
10226;SDS011;15634;48.766;2.272;2023-03-03T14:18:43;29.67;;;15.02;;
10226;SDS011;15634;48.766;2.272;2023-03-03T14:21:17;29.17;;;14.38;;
10226;SDS011;15634;48.766;2.272;2023-03-03T14:23:47;28.85;;;13.55;;
10226;SDS011;15634;48.766;2.272;2023-03-03T14:26:17;31.65;;;14.07;;
10226;SDS011;15634;48.766;2.272;2023-03-03T14:28:44;24.65;;;13.77;;
10226;SDS011;15634;48.766;2.272;2023-03-03T14:31:16;26.10;;;13.32;;
10226;SDS011;15634;48.766;2.272;2023-03-03T14:33:55;28.45;;;14.38;;
10226;SDS011;15634;48.766;2.272;2023-03-03T14:36:27;26.48;;;13.43;;
10226;SDS011;15634;48.766;2.272;2023-03-03T14:38:55;25.77;;;13.80;;
10226;SDS011;15634;48.766;2.272;2023-03-03T14:41:34;29.83;;;14.50;;
10226;SDS011;15634;48.766;2.272;2023-03-03T14:44:19;25.17;;;12.45;;
10226;SDS011;15634;48.766;2.272;2023-03-03T14:46:59;21.73;;;11.77;;
10226;SDS011;15634;48.766;2.272;2023-03-03T14:49:30;24.35;;;12.35;;
10226;SDS011;15634;48.766;2.272;2023-03-03T14:52:00;24.60;;;12.13;;
10226;SDS011;15634;48.766;2.272;2023-03-03T14:54:28;25.60;;;12.80;;
10226;SDS011;15634;48.766;2.272;2023-03-03T14:57:02;25.15;;;13.63;;
10226;SDS011;15634;48.766;2.272;2023-03-03T14:59:33;22.85;;;12.07;;